KPT weather

Jackpot Airport/Hayden Field
Jackpot, Nevada, United States

Public forecast

Using degrees Fahrenheit for public forecast. Weather courtesy of forecast.io.

Closest aviation weather report (METAR) to Jackpot Airport/Hayden Field

Closest report is Joslin Field Magic Valley Regional Airport, 31.3 nm (58.0 km) NNE. Retrieved 2020/08/05 04:53 UTC (8 minutes ago):

KTWF 050453Z AUTO 22008KT 10SM CLR 20/04 A3001 RMK AO2 SLP105 T02000039

Closest aviation forecast (TAF) to Jackpot Airport/Hayden Field

Closest forecast is Joslin Field Magic Valley Regional Airport, 31.3 nm (58.0 km) NNE. Retrieved 2020-08-05 00:33 UTC (4 hours ago):

TAF KTWF 042330Z 0500/0524 31006KT P6SM SKC FM050400 20010KT P6SM SKC FM051800 35007KT P6SM SCT200